createdAt,value
2019-04-11T00:01:58.441Z,7.77
2019-04-11T00:04:26.877Z,7.77
2019-04-11T00:06:56.096Z,8.37
2019-04-11T00:09:24.867Z,8.33
2019-04-11T00:11:54.404Z,8.17
2019-04-11T00:14:24.092Z,7.87
2019-04-11T00:16:53.376Z,7.90
2019-04-11T00:19:23.143Z,7.80
2019-04-11T00:21:51.569Z,7.83
2019-04-11T00:24:20.795Z,7.20
2019-04-11T00:26:49.129Z,7.77
2019-04-11T00:29:18.422Z,7.43
2019-04-11T00:31:47.950Z,7.40
2019-04-11T00:34:16.347Z,8.23
2019-04-11T00:36:44.638Z,8.10
2019-04-11T00:39:13.290Z,8.07
2019-04-11T00:41:41.903Z,7.83
2019-04-11T00:44:10.479Z,8.17
2019-04-11T00:46:38.742Z,8.33
2019-04-11T00:49:08.040Z,8.10
2019-04-11T00:51:36.491Z,7.33
2019-04-11T00:54:04.846Z,7.33
2019-04-11T00:56:33.128Z,8.00
2019-04-11T00:59:02.485Z,8.00
2019-04-11T01:01:31.607Z,7.63
2019-04-11T01:04:01.230Z,8.10
2019-04-11T01:06:30.079Z,8.60
2019-04-11T01:08:58.409Z,7.97
2019-04-11T01:11:27.794Z,7.67
2019-04-11T01:13:57.270Z,7.77
2019-04-11T01:16:39.388Z,7.40
2019-04-11T01:19:08.685Z,7.70
2019-04-11T01:21:37.128Z,7.20
2019-04-11T01:24:05.425Z,7.87
2019-04-11T01:26:34.996Z,7.63
2019-04-11T01:29:04.040Z,8.37
2019-04-11T01:31:33.925Z,7.47
2019-04-11T01:34:02.460Z,7.57
2019-04-11T01:36:31.125Z,7.60
2019-04-11T01:39:05.099Z,7.83
2019-04-11T01:41:34.325Z,7.80
2019-04-11T01:44:05.289Z,7.57
2019-04-11T01:46:33.942Z,7.03
2019-04-11T01:49:08.037Z,7.97
2019-04-11T01:51:36.361Z,7.30
2019-04-11T01:54:05.726Z,7.63
2019-04-11T01:56:34.099Z,7.73
2019-04-11T01:59:02.760Z,7.40
2019-04-11T02:01:35.513Z,7.40
2019-04-11T02:04:11.941Z,7.40
2019-04-11T02:06:40.398Z,7.67
2019-04-11T02:09:11.948Z,7.87
2019-04-11T02:11:41.508Z,8.23
2019-04-11T02:14:15.537Z,7.13
2019-04-11T02:16:39.827Z,8.13
2019-04-11T02:19:08.177Z,7.80
2019-04-11T02:21:36.475Z,7.77
2019-04-11T02:24:25.792Z,7.37
2019-04-11T02:27:08.562Z,7.77
2019-04-11T02:29:37.333Z,7.83
2019-04-11T02:32:07.450Z,7.70
2019-04-11T02:34:36.988Z,7.40
2019-04-11T02:37:07.026Z,7.23
2019-04-11T02:39:35.785Z,7.30
2019-04-11T02:42:04.290Z,7.73
2019-04-11T02:44:52.284Z,7.33
2019-04-11T02:47:10.935Z,7.50
2019-04-11T02:49:33.055Z,7.63
2019-04-11T02:52:02.703Z,7.57
2019-04-11T02:54:33.610Z,7.60
2019-04-11T02:57:02.397Z,7.07
2019-04-11T02:59:31.065Z,8.10
2019-04-11T03:02:00.451Z,8.10
2019-04-11T03:04:30.972Z,8.80
2019-04-11T03:07:00.481Z,9.70
2019-04-11T03:09:29.367Z,9.47
2019-04-11T03:11:59.594Z,7.87
2019-04-11T03:14:44.846Z,9.13
2019-04-11T03:17:08.384Z,7.87
2019-04-11T03:19:42.746Z,7.37
2019-04-11T03:21:59.359Z,7.70
2019-04-11T03:24:30.869Z,7.00
2019-04-11T03:27:04.121Z,7.10
2019-04-11T03:29:30.892Z,8.00
2019-04-11T03:37:23.105Z,7.87
2019-04-11T03:39:50.696Z,7.87
2019-04-11T03:42:17.446Z,8.90
2019-04-11T03:44:37.197Z,8.13
2019-04-11T03:47:16.653Z,8.27
2019-04-11T03:49:39.801Z,7.60
2019-04-11T03:52:01.205Z,6.83
2019-04-11T03:54:31.656Z,7.70
2019-04-11T03:57:01.238Z,7.40
2019-04-11T03:59:31.426Z,8.47
2019-04-11T04:02:00.154Z,7.80
2019-04-11T04:04:29.103Z,7.43
2019-04-11T04:06:58.462Z,7.70
2019-04-11T04:09:29.285Z,8.03
2019-04-11T04:11:58.982Z,7.33
2019-04-11T04:14:34.770Z,8.07
2019-04-11T04:17:06.441Z,7.30
2019-04-11T04:19:37.599Z,7.53
2019-04-11T04:22:15.789Z,8.13
2019-04-11T04:24:45.435Z,8.07
2019-04-11T04:27:15.440Z,8.23
2019-04-11T04:29:47.372Z,7.40
2019-04-11T04:32:14.268Z,7.53
2019-04-11T04:34:44.361Z,7.63
2019-04-11T04:37:14.088Z,7.53
2019-04-11T04:39:43.585Z,7.37
2019-04-11T04:42:23.528Z,7.33
2019-04-11T04:44:42.895Z,8.20
2019-04-11T04:47:21.087Z,7.77
2019-04-11T04:49:43.508Z,7.63
2019-04-11T04:52:14.331Z,8.10
2019-04-11T04:54:42.109Z,8.40
2019-04-11T04:57:13.019Z,9.00
2019-04-11T04:59:42.364Z,7.70
2019-04-11T05:02:11.056Z,8.70
2019-04-11T05:04:41.277Z,8.57
2019-04-11T05:07:09.868Z,7.93
2019-04-11T05:09:40.470Z,8.50
2019-04-11T05:12:09.887Z,8.73
2019-04-11T05:14:39.298Z,9.07
2019-04-11T05:17:08.780Z,8.37
2019-04-11T05:19:38.269Z,8.60
2019-04-11T05:22:06.676Z,8.60
2019-04-11T05:24:34.969Z,8.40
2019-04-11T05:27:04.175Z,8.40
2019-04-11T05:29:33.522Z,9.67
2019-04-11T05:32:03.024Z,9.60
2019-04-11T05:34:31.368Z,8.97
2019-04-11T05:36:59.655Z,8.47
2019-04-11T05:39:27.961Z,8.57
2019-04-11T05:41:56.689Z,8.53
2019-04-11T05:44:25.227Z,8.67
2019-04-11T05:46:57.599Z,9.43
2019-04-11T05:49:38.441Z,9.37
2019-04-11T05:52:06.288Z,9.70
2019-04-11T05:54:38.844Z,9.17
2019-04-11T05:57:07.057Z,9.53
2019-04-11T05:59:37.014Z,9.20
2019-04-11T06:02:15.376Z,9.13
2019-04-11T06:04:51.978Z,9.27
2019-04-11T06:07:19.483Z,8.70
2019-04-11T06:09:49.424Z,9.97
2019-04-11T06:12:19.338Z,9.37
2019-04-11T06:14:52.084Z,9.50
2019-04-11T06:17:21.897Z,9.13
2019-04-11T06:19:57.670Z,9.30
2019-04-11T06:22:25.898Z,9.17
2019-04-11T06:25:13.970Z,8.50
2019-04-11T06:27:47.321Z,9.70
2019-04-11T06:30:17.909Z,8.47
2019-04-11T06:33:06.202Z,8.67
2019-04-11T06:35:46.270Z,8.37
2019-04-11T06:38:28.443Z,8.50
2019-04-11T06:40:58.383Z,7.73
2019-04-11T06:43:38.325Z,8.33
2019-04-11T06:46:25.068Z,7.93
2019-04-11T06:48:58.211Z,7.80
2019-04-11T06:51:34.032Z,7.77
2019-04-11T06:54:23.302Z,8.03
2019-04-11T06:56:52.388Z,7.33
2019-04-11T06:59:22.312Z,7.23
2019-04-11T07:01:50.887Z,7.60
2019-04-11T07:04:21.812Z,6.80
2019-04-11T07:06:51.802Z,6.77
2019-04-11T07:09:22.248Z,6.70
2019-04-11T07:11:52.679Z,6.67
2019-04-11T07:14:25.093Z,7.10
2019-04-11T07:17:12.678Z,6.80
2019-04-11T07:19:58.781Z,7.53
2019-04-11T07:22:45.062Z,6.97
2019-04-11T07:25:27.008Z,6.80
2019-04-11T07:27:59.478Z,6.60
2019-04-11T07:30:45.732Z,7.00
2019-04-11T07:33:31.201Z,6.70
2019-04-11T07:36:18.392Z,7.40
2019-04-11T07:39:06.110Z,7.13
2019-04-11T07:41:39.627Z,6.80
2019-04-11T07:44:10.503Z,6.70
2019-04-11T07:46:57.899Z,6.40
2019-04-11T07:49:37.144Z,6.17
2019-04-11T07:52:10.998Z,6.47
2019-04-11T07:54:39.287Z,6.20
2019-04-11T07:57:15.367Z,6.53
2019-04-11T07:59:46.486Z,6.03
2019-04-11T08:02:33.352Z,6.13
2019-04-11T08:05:06.673Z,6.10
2019-04-11T08:07:36.652Z,6.47
2019-04-11T08:10:24.829Z,5.90
2019-04-11T08:12:55.951Z,6.07
2019-04-11T08:15:42.234Z,6.17
2019-04-11T08:18:24.341Z,6.40
2019-04-11T08:21:10.795Z,6.27
2019-04-11T08:23:40.737Z,6.57
2019-04-11T08:26:26.237Z,6.23
2019-04-11T08:29:05.260Z,7.20
2019-04-11T08:31:43.079Z,6.30
2019-04-11T08:34:11.572Z,6.37
2019-04-11T08:36:48.613Z,6.50
2019-04-11T08:39:18.251Z,6.60
2019-04-11T08:41:51.639Z,6.47
2019-04-11T08:44:19.904Z,6.13
2019-04-11T08:46:51.050Z,6.57
2019-04-11T08:49:29.104Z,6.80
2019-04-11T08:51:58.571Z,7.60
2019-04-11T08:54:37.643Z,6.97
2019-04-11T08:57:05.952Z,7.17
2019-04-11T08:59:53.472Z,7.07
2019-04-11T09:02:22.192Z,7.60
2019-04-11T09:05:13.703Z,6.83
2019-04-11T09:07:54.151Z,6.43
2019-04-11T09:10:40.621Z,6.53
2019-04-11T09:13:11.158Z,7.33
2019-04-11T09:15:53.029Z,7.77
2019-04-11T09:18:21.815Z,6.63
2019-04-11T09:21:07.811Z,6.60
2019-04-11T09:23:37.685Z,6.40
2019-04-11T09:26:07.674Z,6.73
2019-04-11T09:28:37.792Z,7.13
2019-04-11T09:31:25.406Z,6.40
2019-04-11T09:34:07.564Z,6.43
2019-04-11T09:36:40.908Z,6.70
2019-04-11T09:39:21.339Z,6.43
2019-04-11T09:42:03.198Z,6.53
2019-04-11T09:44:49.180Z,6.67
2019-04-11T09:47:36.272Z,6.27
2019-04-11T09:50:24.549Z,6.53
2019-04-11T09:52:57.958Z,6.87
2019-04-11T09:55:44.105Z,6.37
2019-04-11T09:58:19.984Z,6.00
2019-04-11T10:00:59.448Z,6.47
2019-04-11T10:03:29.804Z,6.20
2019-04-11T10:06:15.944Z,6.47
2019-04-11T10:08:44.928Z,7.20
2019-04-11T10:11:15.572Z,6.27
2019-04-11T10:13:51.293Z,6.57
2019-04-11T10:16:26.582Z,6.00
2019-04-11T10:19:11.788Z,6.90
2019-04-11T10:21:54.355Z,6.47
2019-04-11T10:24:24.420Z,6.47
2019-04-11T10:26:54.431Z,6.40
2019-04-11T10:29:40.556Z,6.63
2019-04-11T10:32:10.758Z,6.50
2019-04-11T10:34:57.626Z,6.13
2019-04-11T10:37:25.990Z,6.97
2019-04-11T10:40:02.086Z,6.77
2019-04-11T10:42:30.659Z,7.00
2019-04-11T10:45:16.836Z,7.10
2019-04-11T10:47:47.850Z,6.73
2019-04-11T10:50:17.836Z,7.63
2019-04-11T10:52:50.899Z,6.67
2019-04-11T10:55:21.866Z,7.23
2019-04-11T10:57:52.171Z,7.17
2019-04-11T11:00:23.008Z,7.83
2019-04-11T11:03:00.596Z,6.90
2019-04-11T11:05:33.025Z,6.77
2019-04-11T11:08:05.425Z,7.20
2019-04-11T11:10:35.508Z,6.50
2019-04-11T11:13:21.731Z,6.47
2019-04-11T11:15:51.733Z,7.07
2019-04-11T11:18:48.120Z,6.40
2019-04-11T11:21:02.607Z,6.67
2019-04-11T11:23:49.366Z,6.03
2019-04-11T11:26:22.896Z,6.90
2019-04-11T11:29:13.645Z,6.40
2019-04-11T11:31:44.863Z,7.17
2019-04-11T11:34:24.943Z,7.03
2019-04-11T11:36:56.668Z,6.70
2019-04-11T11:39:26.939Z,6.90
2019-04-11T11:42:02.464Z,6.77
2019-04-11T11:44:35.036Z,6.33
2019-04-11T11:47:13.876Z,6.47
2019-04-11T11:49:53.372Z,7.00
2019-04-11T11:52:33.338Z,6.37
2019-04-11T11:54:59.917Z,6.80
2019-04-11T11:57:30.826Z,6.80
2019-04-11T12:00:00.872Z,7.17
2019-04-11T12:02:36.914Z,6.13
2019-04-11T12:05:12.940Z,6.53
2019-04-11T12:07:43.062Z,6.23
2019-04-11T12:10:22.529Z,6.70
2019-04-11T12:13:11.080Z,6.40
2019-04-11T12:15:51.789Z,7.30
2019-04-11T12:18:28.393Z,7.00
2019-04-11T12:20:59.273Z,7.07
2019-04-11T12:23:29.523Z,7.10
2019-04-11T12:25:57.808Z,7.07
2019-04-11T12:28:30.600Z,7.13
2019-04-11T12:31:03.916Z,6.67
2019-04-11T12:33:52.051Z,7.33
2019-04-11T12:36:23.017Z,7.10
2019-04-11T12:38:54.908Z,7.00
2019-04-11T12:41:40.643Z,7.17
2019-04-11T12:44:29.307Z,6.53
2019-04-11T12:47:07.627Z,6.77
2019-04-11T12:49:39.078Z,6.37
2019-04-11T12:52:25.606Z,5.90
2019-04-11T12:54:55.533Z,5.97
2019-04-11T12:57:25.440Z,6.93
2019-04-11T12:59:55.377Z,7.07
2019-04-11T13:02:34.074Z,7.57
2019-04-11T13:05:03.933Z,7.03
2019-04-11T13:07:34.003Z,8.33
2019-04-11T13:10:03.283Z,7.73
2019-04-11T13:12:49.192Z,7.07
2019-04-11T13:15:24.746Z,7.33
2019-04-11T13:18:12.757Z,7.80
2019-04-11T13:20:48.636Z,7.83
2019-04-11T13:23:34.797Z,7.00
2019-04-11T13:26:21.138Z,7.03
2019-04-11T13:29:03.159Z,7.20
2019-04-11T13:31:49.289Z,7.30
2019-04-11T13:34:19.203Z,7.57
2019-04-11T13:37:05.295Z,7.00
2019-04-11T13:39:34.337Z,7.53
2019-04-11T13:42:20.222Z,7.83
2019-04-11T13:44:48.502Z,7.70
2019-04-11T13:47:18.468Z,7.70
2019-04-11T13:49:48.615Z,8.47
2019-04-11T13:52:34.631Z,7.70
2019-04-11T13:55:07.692Z,7.13
2019-04-11T13:57:53.762Z,7.33
2019-04-11T14:00:38.973Z,7.63
2019-04-11T14:03:08.905Z,7.47
2019-04-11T14:05:38.829Z,9.60
2019-04-11T14:08:07.307Z,7.13
2019-04-11T14:10:35.596Z,7.00
2019-04-11T14:13:05.508Z,7.03
2019-04-11T14:15:36.470Z,6.47
2019-04-11T14:18:11.425Z,7.00
2019-04-11T14:20:45.568Z,6.97
2019-04-11T14:23:15.484Z,6.73
2019-04-11T14:25:45.564Z,7.30
2019-04-11T14:28:15.535Z,7.17
2019-04-11T14:30:57.329Z,7.33
2019-04-11T14:33:27.338Z,7.93
2019-04-11T14:35:59.727Z,8.07
2019-04-11T14:38:32.001Z,7.30
2019-04-11T14:41:03.620Z,7.23
2019-04-11T14:43:33.538Z,8.10
2019-04-11T14:46:15.756Z,7.83
2019-04-11T14:48:48.331Z,7.50
2019-04-11T14:51:18.280Z,7.67
2019-04-11T14:54:04.584Z,7.63
2019-04-11T14:56:37.467Z,6.87
2019-04-11T14:59:23.943Z,7.17
2019-04-11T15:01:54.324Z,6.70
2019-04-11T15:04:32.948Z,7.80
2019-04-11T15:07:02.885Z,7.07
2019-04-11T15:09:48.954Z,6.33
2019-04-11T15:12:18.917Z,8.10
2019-04-11T15:14:57.740Z,6.93
2019-04-11T15:17:30.502Z,6.73
2019-04-11T15:20:06.039Z,7.47
2019-04-11T15:22:51.458Z,6.70
2019-04-11T15:25:21.395Z,7.10
2019-04-11T15:28:00.619Z,7.07
2019-04-11T15:30:48.230Z,7.13
2019-04-11T15:33:33.125Z,7.03
2019-04-11T15:36:03.041Z,6.43
2019-04-11T15:38:35.540Z,6.20
2019-04-11T15:41:05.473Z,7.43
2019-04-11T15:43:51.824Z,7.27
2019-04-11T15:46:21.783Z,7.23
2019-04-11T15:49:19.631Z,7.17
2019-04-11T15:51:39.146Z,6.43
2019-04-11T15:54:14.925Z,6.90
2019-04-11T15:56:57.468Z,6.90
2019-04-11T15:59:39.225Z,7.00
2019-04-11T16:02:11.958Z,7.33
2019-04-11T16:04:47.634Z,7.47
2019-04-11T16:07:20.626Z,7.13
2019-04-11T16:09:53.360Z,7.63
2019-04-11T16:12:39.911Z,7.30
2019-04-11T16:15:19.056Z,7.60
2019-04-11T16:18:01.223Z,6.70
2019-04-11T16:20:29.495Z,6.97
2019-04-11T16:23:02.099Z,7.50
2019-04-11T16:25:30.412Z,7.07
2019-04-11T16:28:09.279Z,7.20
2019-04-11T16:30:42.111Z,7.07
2019-04-11T16:33:24.414Z,7.13
2019-04-11T16:35:57.808Z,6.87
2019-04-11T16:38:43.059Z,6.97
2019-04-11T16:41:29.248Z,7.23
2019-04-11T16:44:01.622Z,13.13
2019-04-11T16:46:31.554Z,7.00
2019-04-11T16:48:59.952Z,7.20
2019-04-11T16:51:30.961Z,6.90
2019-04-11T16:53:58.491Z,6.87
2019-04-11T16:56:26.776Z,6.43
2019-04-11T16:58:55.127Z,7.27
2019-04-11T17:01:23.827Z,7.67
2019-04-11T17:03:55.737Z,6.93
2019-04-11T17:06:41.960Z,7.73
2019-04-11T17:09:28.215Z,7.00
2019-04-11T17:11:57.235Z,6.93
2019-04-11T17:14:28.115Z,6.80
2019-04-11T17:16:56.013Z,7.17
2019-04-11T17:19:24.309Z,7.03
2019-04-11T17:21:52.613Z,7.07
2019-04-11T17:24:20.891Z,7.30
2019-04-11T17:26:52.406Z,7.03
2019-04-11T17:29:20.311Z,7.20
2019-04-11T17:31:48.727Z,6.83
2019-04-11T17:34:17.075Z,6.73
2019-04-11T17:36:45.442Z,6.97
2019-04-11T17:39:13.745Z,6.53
2019-04-11T17:41:42.669Z,6.80
2019-04-11T17:44:11.039Z,6.97
2019-04-11T17:46:39.375Z,6.37
2019-04-11T17:49:07.626Z,6.67
2019-04-11T17:51:35.907Z,6.57
2019-04-11T17:54:04.254Z,7.73
2019-04-11T17:56:32.629Z,6.90
2019-04-11T17:59:00.891Z,6.93
2019-04-11T18:01:29.184Z,6.30
2019-04-11T18:03:57.455Z,6.70
2019-04-11T18:06:25.831Z,6.97
2019-04-11T18:08:54.115Z,6.40
2019-04-11T18:11:25.644Z,6.53
2019-04-11T18:13:52.448Z,6.77
2019-04-11T18:16:20.729Z,5.93
2019-04-11T18:18:49.099Z,6.47
2019-04-11T18:21:17.448Z,6.20
2019-04-11T18:23:49.894Z,6.27
2019-04-11T18:26:15.744Z,6.27
2019-04-11T18:28:44.030Z,6.30
2019-04-11T18:31:12.303Z,6.47
2019-04-11T18:33:40.599Z,6.30
2019-04-11T18:36:08.880Z,6.87
2019-04-11T18:38:37.165Z,6.47
2019-04-11T18:41:05.528Z,6.00
2019-04-11T18:43:33.822Z,6.27
2019-04-11T18:46:02.096Z,7.20
2019-04-11T18:48:30.378Z,6.30
2019-04-11T18:50:58.656Z,7.57
2019-04-11T18:53:26.932Z,6.40
2019-04-11T18:55:55.229Z,6.47
2019-04-11T18:58:23.518Z,6.17
2019-04-11T19:00:51.809Z,6.60
2019-04-11T19:03:20.086Z,6.50
2019-04-11T19:05:49.413Z,6.80
2019-04-11T19:08:17.786Z,6.57
2019-04-11T19:10:49.398Z,6.80
2019-04-11T19:14:50.385Z,6.43
2019-04-11T19:17:18.664Z,6.97
2019-04-11T19:19:48.835Z,6.40
2019-04-11T19:22:19.608Z,5.90
2019-04-11T19:24:47.021Z,6.40
2019-04-11T19:27:16.532Z,6.27
2019-04-11T19:29:45.378Z,6.17
2019-04-11T19:32:13.752Z,7.33
2019-04-11T19:34:42.117Z,6.40
2019-04-11T19:37:12.010Z,6.67
2019-04-11T19:39:46.402Z,6.50
2019-04-11T19:42:18.761Z,6.77
2019-04-11T19:44:44.876Z,6.63
2019-04-11T19:47:13.197Z,6.33
2019-04-11T19:49:41.483Z,6.93
2019-04-11T19:52:09.818Z,5.93
2019-04-11T19:54:38.114Z,6.37
2019-04-11T19:57:07.485Z,5.93
2019-04-11T19:59:35.757Z,6.57
2019-04-11T20:02:04.146Z,7.03
2019-04-11T20:04:32.416Z,6.40
2019-04-11T20:07:00.709Z,5.83
2019-04-11T20:09:29.035Z,6.20
2019-04-11T20:11:59.929Z,6.17
2019-04-11T20:14:27.445Z,6.13
2019-04-11T20:16:55.817Z,6.60
2019-04-11T20:19:27.139Z,5.93
2019-04-11T20:21:54.204Z,5.93
2019-04-11T20:24:22.478Z,6.23
2019-04-11T20:26:50.869Z,6.17
2019-04-11T20:29:21.401Z,6.53
2019-04-11T20:31:49.119Z,5.97
2019-04-11T20:34:26.770Z,5.83
2019-04-11T20:36:47.399Z,6.10
2019-04-11T20:39:16.025Z,6.27
2019-04-11T20:41:44.335Z,6.27
2019-04-11T20:44:12.645Z,6.27
2019-04-11T20:46:40.918Z,6.20
2019-04-11T20:49:09.223Z,6.37
2019-04-11T20:51:37.494Z,6.47
2019-04-11T20:54:07.409Z,6.20
2019-04-11T20:56:39.850Z,6.07
2019-04-11T20:59:10.083Z,6.33
2019-04-11T21:01:35.926Z,5.60
2019-04-11T21:04:04.797Z,6.43
2019-04-11T21:06:33.462Z,6.43
2019-04-11T21:09:03.158Z,6.27
2019-04-11T21:11:36.176Z,5.93
2019-04-11T21:14:01.777Z,5.90
2019-04-11T21:16:30.049Z,6.20
2019-04-11T21:18:58.355Z,6.80
2019-04-11T21:21:26.662Z,6.33
2019-04-11T21:23:54.974Z,6.80
2019-04-11T21:26:23.236Z,6.60
2019-04-11T21:28:51.512Z,6.83
2019-04-11T21:31:19.795Z,5.97
2019-04-11T21:33:48.093Z,6.67
2019-04-11T21:36:16.379Z,7.13
2019-04-11T21:38:44.652Z,7.20
2019-04-11T21:41:12.952Z,6.80
2019-04-11T21:43:41.231Z,6.73
2019-04-11T21:46:09.528Z,6.53
2019-04-11T21:48:37.804Z,7.23
2019-04-11T21:51:06.120Z,6.70
2019-04-11T21:53:36.891Z,7.13
2019-04-11T21:56:04.410Z,7.40
2019-04-11T21:58:32.696Z,7.00
2019-04-11T22:01:04.294Z,6.40
2019-04-11T22:03:32.646Z,6.73
2019-04-11T22:06:01.008Z,7.67
2019-04-11T22:08:29.347Z,6.77
2019-04-11T22:10:57.663Z,6.57
2019-04-11T22:13:25.938Z,7.10
2019-04-11T22:15:54.236Z,7.03
2019-04-11T22:18:22.510Z,7.17
2019-04-11T22:20:50.800Z,7.00
2019-04-11T22:23:19.087Z,6.93
2019-04-11T22:25:47.372Z,6.63
2019-04-11T22:28:15.742Z,6.80
2019-04-11T22:30:44.299Z,6.33
2019-04-11T22:33:16.958Z,6.63
2019-04-11T22:35:45.330Z,6.33
2019-04-11T22:38:13.675Z,7.10
2019-04-11T22:40:41.972Z,6.80
2019-04-11T22:43:22.541Z,6.60
2019-04-11T22:45:40.258Z,6.63
2019-04-11T22:48:09.323Z,6.53
2019-04-11T22:50:40.336Z,6.20
2019-04-11T22:53:07.942Z,6.20
2019-04-11T22:55:36.233Z,6.50
2019-04-11T22:58:04.519Z,6.97
2019-04-11T23:00:32.804Z,7.63
2019-04-11T23:03:16.728Z,6.70
2019-04-11T23:05:46.651Z,7.00
2019-04-11T23:08:18.774Z,7.43
2019-04-11T23:10:46.821Z,7.13
2019-04-11T23:13:15.877Z,7.23
2019-04-11T23:15:44.724Z,6.90
2019-04-11T23:18:14.056Z,7.03
2019-04-11T23:20:44.070Z,9.30
2019-04-11T23:23:13.493Z,10.33
2019-04-11T23:25:42.347Z,10.33
2019-04-11T23:28:10.641Z,10.53
2019-04-11T23:30:38.921Z,9.57
2019-04-11T23:33:07.218Z,8.53
2019-04-11T23:35:35.576Z,7.87
2019-04-11T23:38:03.869Z,8.07
2019-04-11T23:40:32.139Z,8.20
2019-04-11T23:43:00.434Z,8.13
2019-04-11T23:45:29.684Z,7.80
2019-04-11T23:47:57.978Z,8.20
2019-04-11T23:50:26.288Z,8.83
2019-04-11T23:52:57.076Z,8.57
2019-04-11T23:55:24.644Z,8.77
2019-04-11T23:57:52.924Z,8.43
